Dawson, IL (62520)

2:09 PM CDT on September 01, 2015 (GMT -0500)
South Weather Station | | Change Station
CLOSE
Current Station
Personal Weather Station
Location: Mechanicsburg, IL
Elevation: 587 ft
Nearby Weather Stations

Elev 587 ft 39.80 °N, 89.40 °W | Updated 4 seconds ago

Clear
Clear
95.6 °F
Feels Like 105 °F
N
8.0
Wind Variable Wind from SSW
Gusts 11.0 mph

Today
High -- | Low -- °F
--% Chance of Precip.
Yesterday
High -- | Low -- °F
Precip. -- in
6:25 AM 7:29 PM
Waning Gibbous, 87% visible
Pressure 30.03 in
Visibility 10.0 miles
Clouds Few 5000 ft
Scattered Clouds 9000 ft
Mostly Cloudy 11000 ft
Heat Index 105 °F
Dew Point 72 °F
Humidity 47%
Rainfall 0.00 in
Snow Depth Not available.
UV 5 out of 12
Pollen 10.70 out of 12
Air Quality Not available.
Flu Activity Not available.
METAR KSPI 011852Z 25008KT 10SM FEW050 SCT090 BKN110 33/21 A3005 RMK AO2 SLP168 T03330211
Pressure 30.03 in
Visibility 10.0 miles
Clouds Few 5000 ft
Scattered Clouds 9000 ft
Mostly Cloudy 11000 ft
Heat Index 105 °F
Dew Point 72 °F
Humidity 47%
Rainfall 0.00 in
Snow Depth Not available.
UV 5 out of 12
Pollen 10.70 out of 12
Air Quality Not available.
Flu Activity Not available.
METAR KSPI 011852Z 25008KT 10SM FEW050 SCT090 BKN110 33/21 A3005 RMK AO2 SLP168 T03330211

10-Day Weather Forecast

×

Almanac

Astronomy

Sep. 01, 2015 Rise Set
Actual Time
Civil Twilight
Nautical Twilight
Astronomical Twilight
Moon
Length of Visible Light
Length of Day
Tomorrow will be .
, % of the Moon is Illuminated

Today's Extremes

State Highs State Lows

Community

WunderPhotos

Upload Photos

1,851,596 photos uploaded!

WunderBlogs® & News

Nearby

Air Quality

  Air Quality AQ Index Pollutant
Not available.

Snow Depth

Station Depth Elevation

Earthquake Activity

City Distance Mag. Time & Date
Minimum magnitude displayed is 2.5.

Coastal Water Temperatures

Place Temperature

Stations

Nearby Weather Stations

Station Location Temp. Windchill Dew Point Humidity Wind Precip. Elev Updated Type